AirNav   Air Wisconsin Up To $57,000 Bonus
 
 375 users online  

KLSN Los Banos Municipal Airport
Los Banos, California, USA

GOING TO LOS BANOS?


FAA INFORMATION EFFECTIVE 05 NOVEMBER 2020

Location

FAA Identifier: LSN
Lat/Long: 37-03-50.0000N 120-52-11.5000W
37-03.833333N 120-52.191667W
37.0638889,-120.8698611
(estimated)
Elevation: 121.4 ft. / 37.0 m (surveyed)
Variation: 16E (1980)
From city: 1 mile W of LOS BANOS, CA
Time zone: UTC -8 (UTC -7 during Daylight Saving Time)
Zip code: 93635

Airport Operations

Airport use: Open to the public
Activation date: 04/1940
Control tower: no
ARTCC: OAKLAND CENTER
FSS: RANCHO MURIETA FLIGHT SERVICE STATION
NOTAMs facility: RIU (NOTAM-D service available)
Attendance: UNATNDD
Pattern altitude: 921.4 ft. MSL
Wind indicator: lighted
Segmented circle: yes
Lights: MIRL RY 14/32 PRESET LOW INTST UNTIL 2400. TO INCR INTST AND ACTVT MIRL, REIL RY 14, RY 32 AND PAPI RY 14 AND RY 32 - CTAF.
Beacon: white-green (lighted land airport)
Operates sunset to sunrise.

Airport Communications

CTAF/UNICOM: 122.8
WX AWOS-3: 118.675 (209-827-7084)
NORCAL APPROACH: 120.95
NORCAL DEPARTURE: 120.95
  • COMMUNICATIONS PRVDD BY FRESNO RADIO ON FREQ 122.1R (PANOCHE RCO).

Nearby radio navigation aids

VOR radial/distance  VOR name  Freq  Var
PXNr332/21.4PANOCHE VORTAC112.6016E
HYPr232/24.3EL NIDO VOR/DME114.2015E
MODr156/34.1MODESTO VOR/DME114.6017E

Airport Services

Fuel available: 100LL JET-A
24 HR AUTOMATED FUEL AVBL WITH MAJOR CREDIT CARD. CALL 209-827-7070 AFTER HRS FOR EMERG FULL SRV.
Parking: tiedowns
Airframe service: MINOR
Powerplant service: MINOR
Bottled oxygen: NONE
Bulk oxygen: NONE

Runway Information

Runway 14/32

Dimensions: 3801 x 75 ft. / 1159 x 23 m
Surface: asphalt, in good condition
Weight bearing capacity: 
Single wheel: 23.0
Runway edge lights: medium intensity
RUNWAY 14  RUNWAY 32
Latitude: 37-04.112515N37-03.553248N
Longitude: 120-52.367800W120-52.016078W
Elevation: 120.8 ft.121.4 ft.
Traffic pattern: rightleft
Runway heading: 137 magnetic, 153 true317 magnetic, 333 true
Markings: basic, in good conditionbasic, in good condition
Visual slope indicator: 2-light PAPI on left (3.00 degrees glide path)2-light PAPI on left (3.00 degrees glide path)
Runway end identifier lights: yesyes
Touchdown point: yes, no lightsyes, no lights
Obstructions: 40 ft. pline, 1500 ft. from runway, 50 ft. left of centerline, 33:1 slope to clear27 ft. tree, 760 ft. from runway, 25 ft. right of centerline, 21:1 slope to clear

Airport Ownership and Management from official FAA records

Ownership: Publicly-owned
Owner: CITY OF LOS BANOS
520 J STREET
LOS BANOS, CA 93635-4240
Phone 209-827-7034
Manager: MARK FACHIN
411 MADISON AVENUE
LOS BANOS, CA 93635-4214
Phone (209) 827-7056
DIRECTOR OF PUBLIC WORKS. MARK.FACHIN@LOSBANOS.ORG

Airport Operational Statistics

Aircraft based on the field: 19
Single engine airplanes: 17
Jet airplanes: 1
Gliders airplanes: 1
    
Aircraft operations: avg 44/day *
60% local general aviation
40% transient general aviation
* for 12-month period ending 10 July 2019

Additional Remarks

AVOID OVERFLIGHT OF HOUSES SOUTH OF ARPT.
NO DEPS OVER HOUSING AREAS TO EAST OF ARPT.
FOR CD CTC NORCAL APCH AT 916-361-0516.

Instrument Procedures

NOTE: All procedures below are presented as PDF files. If you need a reader for these files, you should download the free Adobe Reader.

NOT FOR NAVIGATION. Please procure official charts for flight.
FAA instrument procedures published for use from 05 November 2020 at 0901Z to 03 December 2020 at 0900z.

 
IAPs - Instrument Approach Procedures
RNAV (GPS) RWY 14   download (229KB)
RNAV (GPS) RWY 32   download (213KB)
NOTE: Special Take-Off Minimums/Departure Procedures apply   download (128KB)

Other nearby airports with instrument procedures:

KMCE - Merced Regional Airport/Macready Field (22 nm NE)
F34 - Firebaugh Airport (23 nm SE)
KMER - Castle Airport (24 nm NE)
KCVH - Hollister Municipal Airport (28 nm W)
KMOD - Modesto City-County Airport-Harry Sham Field (34 nm N)
 
Loc | Ops | Rwys | IFR | FBO | Links
Com | Nav | Svcs | Stats | Notes
Area around KLSN (Los Banos Municipal Airport)
 
Road maps at: MapQuest Bing Google
 
Aerial photo
WARNING: Photo may not be current or correct
Aerial photo of KLSN (Los Banos Municipal Airport)
Photo by Kedar S. Karmarkar
Taken mid June 2006

Do you have a better or more recent aerial photo of Los Banos Municipal Airport that you would like to share? If so, please send us your photo.

 
Sectional chart

 
Airport distance calculator
Flying to Los Banos Municipal Airport? Find the distance to fly.

From to KLSN

Sunrise and sunset
Times for 30-Nov-2020
 Local
(UTC-8)
 Zulu
(UTC)
Morning civil twilight06:3114:31
Sunrise06:5914:59
Sunset16:4600:46
Evening civil twilight17:1401:14

Current date and time
Zulu (UTC)  30-Nov-2020 08:41:06
Local (UTC-8)  30-Nov-2020 00:41:06
 
METAR
KMCE 
22nm NE 
300753Z AUTO 11003KT 8SM CLR 03/M01 A3023 RMK AO2 SLP237 T00331006 401831017
KMER 
24nm NE 
300815Z AUTO 00000KT 10SM CLR 01/01 A3023 RMK AO1
KCVH 
28nm W 
300815Z AUTO 00000KT 10SM CLR 05/M03 A3024 RMK A01
KMOD 
33nm N 
300753Z AUTO 11004KT 8SM CLR 02/M01 A3022 RMK AO2 SLP233 T00221006 401781022
KE16 
35nm W 
300815Z AUTO 00000KT 10SM CLR 04/00 A3026 RMK AO2
KMAE 
36nm E 
300753Z AUTO 00000KT 9SM CLR 02/M01 A3025 RMK AO2 SLP245 T00221011 401891017
KSNS 
42nm SW 
300753Z AUTO 11003KT 10SM CLR 06/02 A3023 RMK AO2 SLP244 T00610022 402330022
TAF
KMCE 
22nm NE 
300520Z 3006/0106 VRB02KT P6SM BKN250 FM301200 00000KT 6SM BR FEW250 FM301700 VRB03KT P6SM SKC FM302100 32008KT P6SM SKC
KMER 
24nm NE 
300520Z 3006/0106 VRB02KT P6SM BKN250 FM301200 00000KT 5SM BR FEW250 FM301700 VRB03KT P6SM SKC FM302100 32008KT P6SM SKC
NOTAMs
Click for the latest NOTAMs
NOTAMs are issued by the DoD/FAA and will open in a separate window not controlled by AirNav.

 

 
 

FBO, Fuel Providers, and Aircraft Ground Support

  
 Business Name 
 
 Contact 
 
 Services / Description 
 
Fuel Prices
 
Comments
  
City of Los Banos (FBO) 209-827-7044
[web site]
[email]
Airport management, Aviation fuel, Hangar leasing / sales, Restrooms

More info about City of Los Banos (FBO)
independent
100LL Jet A
SS $4.25 $2.99 
 Updated 20-Nov-2020
 
   1 read write
SS=Self service
Update Fuel Prices
 

Would you like to see your business listed on this page?

 If your business provides an interesting product or service to pilots, flight crews, aircraft, or users of the Los Banos Municipal Airport, you should consider listing it here.  To start the listing process, click on the button below
 
Add a business
 

Other Pages about Los Banos Municipal Airport

Update a link
 
Copyright © AirNav, LLC. All rights reserved. Privacy Policy  Contact